createdAt,value
2022-12-12T00:01:23.589Z,99.90
2022-12-12T00:03:51.247Z,99.90
2022-12-12T00:06:18.476Z,99.90
2022-12-12T00:08:45.412Z,99.90
2022-12-12T00:11:12.920Z,99.90
2022-12-12T00:13:40.145Z,99.90
2022-12-12T00:16:08.935Z,99.90
2022-12-12T00:18:38.967Z,99.90
2022-12-12T00:21:08.500Z,99.90
2022-12-12T00:26:05.684Z,99.90
2022-12-12T00:28:33.052Z,99.90
2022-12-12T00:35:55.254Z,99.90
2022-12-12T00:38:23.988Z,99.90
2022-12-12T00:40:56.192Z,99.90
2022-12-12T00:43:23.472Z,99.90
2022-12-12T00:45:50.326Z,99.90
2022-12-12T00:53:11.887Z,99.90
2022-12-12T00:55:39.057Z,99.90
2022-12-12T00:58:05.854Z,99.90
2022-12-12T01:00:33.545Z,99.90
2022-12-12T01:03:00.603Z,99.90
2022-12-12T01:05:28.266Z,99.90
2022-12-12T01:07:55.004Z,99.90
2022-12-12T01:17:43.522Z,99.90
2022-12-12T01:20:36.508Z,99.90
2022-12-12T01:25:30.390Z,99.90
2022-12-12T01:27:57.080Z,99.90
2022-12-12T01:30:23.987Z,99.90
2022-12-12T01:32:51.167Z,99.90
2022-12-12T01:35:18.619Z,99.90
2022-12-12T01:37:45.719Z,99.90
2022-12-12T01:40:23.449Z,99.90
2022-12-12T01:42:51.177Z,99.90
2022-12-12T01:45:55.324Z,99.90
2022-12-12T01:48:23.518Z,99.90
2022-12-12T01:50:51.050Z,99.90
2022-12-12T01:53:19.836Z,99.90
2022-12-12T01:55:48.989Z,99.90
2022-12-12T01:58:17.079Z,99.90
2022-12-12T02:00:43.902Z,99.90
2022-12-12T02:05:41.984Z,99.90
2022-12-12T02:08:10.843Z,99.90
2022-12-12T02:10:38.130Z,99.90
2022-12-12T02:13:26.719Z,99.90
2022-12-12T02:15:56.189Z,99.90
2022-12-12T02:18:38.273Z,99.90
2022-12-12T02:21:23.999Z,99.90
2022-12-12T02:24:16.110Z,99.90
2022-12-12T02:27:25.467Z,99.90
2022-12-12T02:29:58.099Z,99.90
2022-12-12T02:32:30.749Z,99.90
2022-12-12T02:35:29.563Z,99.90
2022-12-12T02:38:15.881Z,99.90
2022-12-12T02:41:02.088Z,99.90
2022-12-12T02:43:52.212Z,99.90
2022-12-12T02:47:00.541Z,99.90
2022-12-12T02:49:33.092Z,99.90
2022-12-12T02:52:02.196Z,99.90
2022-12-12T02:54:29.717Z,99.90
2022-12-12T02:56:59.264Z,99.90
2022-12-12T02:59:33.297Z,99.90
2022-12-12T03:02:12.429Z,99.90
2022-12-12T03:05:12.988Z,99.90
2022-12-12T03:07:54.422Z,99.90
2022-12-12T03:10:27.207Z,99.90
2022-12-12T03:13:29.782Z,99.90
2022-12-12T03:16:09.559Z,99.90
2022-12-12T03:19:07.344Z,99.90
2022-12-12T03:21:34.092Z,99.90
2022-12-12T03:24:10.937Z,99.90
2022-12-12T03:27:04.271Z,99.90
2022-12-12T03:30:06.061Z,99.90
2022-12-12T03:32:46.583Z,99.90
2022-12-12T03:35:42.614Z,99.90
2022-12-12T03:38:17.402Z,99.90
2022-12-12T03:40:49.354Z,99.90
2022-12-12T03:43:35.183Z,99.90
2022-12-12T03:46:31.162Z,99.90
2022-12-12T03:49:11.187Z,99.90
2022-12-12T03:51:42.952Z,99.90
2022-12-12T03:54:29.942Z,99.90
2022-12-12T03:59:33.500Z,99.90
2022-12-12T04:02:21.328Z,99.90
2022-12-12T04:05:13.043Z,99.90
2022-12-12T04:08:08.694Z,99.90
2022-12-12T04:11:04.770Z,99.90
2022-12-12T04:16:05.908Z,99.90
2022-12-12T04:19:35.244Z,99.90
2022-12-12T04:22:27.136Z,99.90
2022-12-12T04:25:02.483Z,99.90
2022-12-12T04:27:35.308Z,99.90
2022-12-12T04:30:11.220Z,99.90
2022-12-12T04:32:40.880Z,99.90
2022-12-12T04:37:48.469Z,99.90
2022-12-12T04:40:23.413Z,99.90
2022-12-12T04:43:17.823Z,99.90
2022-12-12T04:45:57.717Z,99.90
2022-12-12T04:48:38.577Z,99.90
2022-12-12T04:51:09.264Z,99.90
2022-12-12T04:53:41.889Z,99.90
2022-12-12T04:56:13.818Z,99.90
2022-12-12T04:58:41.378Z,99.90
2022-12-12T05:01:32.525Z,99.90
2022-12-12T05:04:05.425Z,99.90
2022-12-12T05:06:40.578Z,99.90
2022-12-12T05:09:08.144Z,99.90
2022-12-12T05:11:35.457Z,99.90
2022-12-12T05:14:02.379Z,99.90
2022-12-12T05:18:56.478Z,99.90
2022-12-12T05:23:50.616Z,99.90
2022-12-12T05:28:44.432Z,99.90
2022-12-12T05:31:11.370Z,99.90
2022-12-12T05:50:53.067Z,99.90
2022-12-12T05:53:20.472Z,99.90
2022-12-12T05:55:52.249Z,99.90
2022-12-12T05:58:20.206Z,99.90
2022-12-12T06:00:48.854Z,99.90
2022-12-12T06:03:15.884Z,99.90
2022-12-12T06:08:10.197Z,99.90
2022-12-12T06:13:04.298Z,99.90
2022-12-12T06:20:25.729Z,99.90
2022-12-12T06:25:21.273Z,99.90
2022-12-12T06:30:15.382Z,99.90
2022-12-12T06:32:42.650Z,99.90
2022-12-12T06:35:10.419Z,99.90
2022-12-12T06:37:37.533Z,99.90
2022-12-12T06:40:05.310Z,99.90
2022-12-12T06:47:26.558Z,99.90
2022-12-12T06:54:47.515Z,99.90
2022-12-12T07:02:11.264Z,99.90
2022-12-12T07:07:05.138Z,99.90
2022-12-12T07:09:31.904Z,99.90
2022-12-12T07:36:31.285Z,99.90
2022-12-12T07:46:25.304Z,99.90
2022-12-12T07:48:53.143Z,99.90
2022-12-12T07:51:20.589Z,99.90
2022-12-12T07:53:47.815Z,99.90
2022-12-12T07:56:16.232Z,99.90
2022-12-12T07:58:43.310Z,99.90
2022-12-12T08:01:22.192Z,99.90
2022-12-12T08:03:49.417Z,99.90
2022-12-12T08:06:17.516Z,99.90
2022-12-12T08:08:45.765Z,99.90
2022-12-12T08:11:14.683Z,99.90
2022-12-12T08:16:17.103Z,99.90
2022-12-12T08:21:13.036Z,99.90
2022-12-12T08:23:40.547Z,99.90
2022-12-12T08:26:09.568Z,99.90
2022-12-12T08:28:37.047Z,99.90
2022-12-12T08:31:04.074Z,99.90
2022-12-12T08:33:31.171Z,99.90
2022-12-12T08:35:57.966Z,99.90
2022-12-12T08:40:52.048Z,99.90
2022-12-12T08:43:18.866Z,99.80
2022-12-12T08:45:47.071Z,99.80
2022-12-12T08:50:41.552Z,98.60
2022-12-12T08:53:08.319Z,98.20
2022-12-12T08:58:02.933Z,98.00
2022-12-12T09:02:56.976Z,98.70
2022-12-12T09:10:18.516Z,96.90
2022-12-12T09:15:12.850Z,95.80
2022-12-12T09:20:07.335Z,95.60
2022-12-12T09:32:24.884Z,85.70
2022-12-12T09:34:51.939Z,84.10
2022-12-12T09:39:45.982Z,82.60
2022-12-12T09:42:27.754Z,82.60
2022-12-12T09:44:58.923Z,84.40
2022-12-12T09:47:41.285Z,86.10
2022-12-12T09:50:21.955Z,86.20
2022-12-12T09:52:49.078Z,86.30
2022-12-12T09:55:34.151Z,87.50
2022-12-12T09:58:15.936Z,89.20
2022-12-12T10:00:59.881Z,88.90
2022-12-12T10:04:12.778Z,88.60
2022-12-12T10:06:49.096Z,88.70
2022-12-12T10:09:30.414Z,88.80
2022-12-12T10:12:00.977Z,88.80
2022-12-12T10:14:54.830Z,87.90
2022-12-12T10:17:29.574Z,88.20
2022-12-12T10:20:01.594Z,88.00
2022-12-12T10:22:40.432Z,85.40
2022-12-12T10:25:56.825Z,84.40
2022-12-12T10:28:25.883Z,85.10
2022-12-12T10:30:58.736Z,85.70
2022-12-12T10:33:54.270Z,86.80
2022-12-12T10:36:41.180Z,87.50
2022-12-12T10:39:29.791Z,88.90
2022-12-12T10:42:29.879Z,90.00
2022-12-12T10:44:59.426Z,91.10
2022-12-12T10:47:26.262Z,91.60
2022-12-12T10:50:10.031Z,93.70
2022-12-12T10:55:19.034Z,96.60
2022-12-12T11:00:37.847Z,96.80
2022-12-12T11:03:12.625Z,95.90
2022-12-12T11:05:40.984Z,96.00
2022-12-12T11:08:22.188Z,97.50
2022-12-12T11:11:00.045Z,97.40
2022-12-12T11:16:12.927Z,97.10
2022-12-12T11:21:11.219Z,97.90
2022-12-12T11:23:41.430Z,97.80
2022-12-12T11:26:15.581Z,97.40
2022-12-12T11:28:44.540Z,97.40
2022-12-12T11:31:17.172Z,97.20
2022-12-12T11:33:54.804Z,94.80
2022-12-12T11:36:28.083Z,94.30
2022-12-12T11:38:57.019Z,94.30
2022-12-12T11:41:24.327Z,93.70
2022-12-12T11:43:51.042Z,94.90
2022-12-12T11:46:20.352Z,95.50
2022-12-12T11:48:47.351Z,96.50
2022-12-12T11:51:29.869Z,96.80
2022-12-12T11:53:57.019Z,97.00
2022-12-12T11:58:58.797Z,97.30
2022-12-12T12:01:40.301Z,97.10
2022-12-12T12:04:22.675Z,98.20
2022-12-12T12:07:14.882Z,98.20
2022-12-12T12:09:51.121Z,98.60
2022-12-12T12:12:24.643Z,98.10
2022-12-12T12:15:23.546Z,98.00
2022-12-12T12:18:05.229Z,98.60
2022-12-12T12:20:38.472Z,99.30
2022-12-12T12:23:14.696Z,99.50
2022-12-12T12:25:44.559Z,99.50
2022-12-12T12:28:20.564Z,99.40
2022-12-12T12:31:10.561Z,99.40
2022-12-12T12:34:01.879Z,99.40
2022-12-12T12:36:51.726Z,99.80
2022-12-12T12:39:40.904Z,99.50
2022-12-12T12:42:33.989Z,99.90
2022-12-12T12:45:26.349Z,99.90
2022-12-12T12:47:58.839Z,99.90
2022-12-12T12:50:49.806Z,99.90
2022-12-12T12:53:42.757Z,99.90
2022-12-12T12:56:44.172Z,99.80
2022-12-12T12:59:18.338Z,99.60
2022-12-12T13:01:48.874Z,99.80
2022-12-12T13:04:18.887Z,99.90
2022-12-12T13:07:04.654Z,99.90
2022-12-12T13:09:52.373Z,99.70
2022-12-12T13:14:55.228Z,99.80
2022-12-12T13:17:47.391Z,99.80
2022-12-12T13:20:18.351Z,99.60
2022-12-12T13:25:41.343Z,99.90
2022-12-12T13:28:21.048Z,99.70
2022-12-12T13:33:26.842Z,99.30
2022-12-12T13:36:00.245Z,99.50
2022-12-12T13:38:30.872Z,99.80
2022-12-12T13:41:00.455Z,99.90
2022-12-12T13:43:33.312Z,99.50
2022-12-12T13:46:28.802Z,98.60
2022-12-12T13:49:23.010Z,99.10
2022-12-12T13:54:19.929Z,99.50
2022-12-12T13:56:52.935Z,99.90
2022-12-12T13:59:22.453Z,99.90
2022-12-12T14:02:09.166Z,99.90
2022-12-12T14:04:37.755Z,99.90
2022-12-12T14:07:06.767Z,99.50
2022-12-12T14:09:47.721Z,99.40
2022-12-12T14:12:31.777Z,99.80
2022-12-12T14:15:05.320Z,99.90
2022-12-12T14:17:41.688Z,99.90
2022-12-12T14:20:29.931Z,99.90
2022-12-12T14:22:59.814Z,99.90
2022-12-12T14:25:34.315Z,99.80
2022-12-12T14:28:23.505Z,99.40
2022-12-12T14:30:57.103Z,99.90
2022-12-12T14:33:48.964Z,99.90
2022-12-12T14:36:52.767Z,99.60
2022-12-12T14:39:48.629Z,99.90
2022-12-12T14:42:27.706Z,99.90
2022-12-12T14:45:28.043Z,99.90
2022-12-12T14:48:15.385Z,99.90
2022-12-12T14:50:52.984Z,99.90
2022-12-12T14:53:24.533Z,99.90
2022-12-12T14:56:10.111Z,99.90
2022-12-12T14:59:04.565Z,99.90
2022-12-12T15:01:44.796Z,99.90
2022-12-12T15:06:43.993Z,99.90
2022-12-12T15:09:18.526Z,99.90
2022-12-12T15:11:47.283Z,99.90
2022-12-12T15:14:27.769Z,99.90
2022-12-12T15:17:07.885Z,99.90
2022-12-12T15:19:44.768Z,99.90
2022-12-12T15:22:26.293Z,99.90
2022-12-12T15:24:54.913Z,99.90
2022-12-12T15:27:41.958Z,99.90
2022-12-12T15:30:33.080Z,99.90
2022-12-12T15:33:01.616Z,99.90
2022-12-12T15:35:28.618Z,99.90
2022-12-12T15:38:02.736Z,99.90
2022-12-12T15:40:30.380Z,99.90
2022-12-12T15:43:03.897Z,99.90
2022-12-12T15:45:36.982Z,99.90
2022-12-12T15:48:05.690Z,99.90
2022-12-12T15:50:44.613Z,99.90
2022-12-12T15:53:32.547Z,99.90
2022-12-12T15:55:59.293Z,99.90
2022-12-12T15:58:30.962Z,99.90
2022-12-12T16:01:04.576Z,99.90
2022-12-12T16:06:03.227Z,99.90
2022-12-12T16:08:39.182Z,99.90
2022-12-12T16:11:32.681Z,99.90
2022-12-12T16:14:00.184Z,99.90
2022-12-12T16:16:41.059Z,99.90
2022-12-12T16:19:35.645Z,99.90
2022-12-12T16:22:14.547Z,99.90
2022-12-12T16:24:53.531Z,99.90
2022-12-12T16:27:20.950Z,99.90
2022-12-12T16:29:48.434Z,99.90
2022-12-12T16:32:18.035Z,99.90
2022-12-12T16:34:44.850Z,99.90
2022-12-12T16:37:17.887Z,99.90
2022-12-12T16:39:45.156Z,99.90
2022-12-12T16:42:17.280Z,99.90
2022-12-12T16:44:44.803Z,99.90
2022-12-12T16:47:15.664Z,99.90
2022-12-12T16:49:42.552Z,99.90
2022-12-12T16:52:13.093Z,99.90
2022-12-12T16:54:40.493Z,99.90
2022-12-12T16:59:34.857Z,99.90
2022-12-12T17:02:02.062Z,99.90
2022-12-12T17:06:57.596Z,99.90
2022-12-12T17:11:56.986Z,99.90
2022-12-12T17:14:25.154Z,99.90
2022-12-12T17:16:53.769Z,99.90
2022-12-12T17:21:49.421Z,99.90
2022-12-12T17:26:43.797Z,99.90
2022-12-12T17:29:10.741Z,99.90
2022-12-12T17:31:37.794Z,99.90
2022-12-12T17:34:05.370Z,99.90
2022-12-12T17:36:32.431Z,99.90
2022-12-12T17:41:27.981Z,99.90
2022-12-12T17:43:56.237Z,99.90
2022-12-12T17:46:24.110Z,99.90
2022-12-12T17:48:50.908Z,99.90
2022-12-12T17:51:20.260Z,99.90
2022-12-12T17:53:47.405Z,99.90
2022-12-12T17:56:18.267Z,99.90
2022-12-12T17:58:46.615Z,99.90
2022-12-12T18:01:16.003Z,99.90
2022-12-12T18:03:43.743Z,99.90
2022-12-12T18:06:11.290Z,99.90
2022-12-12T18:08:38.574Z,99.90
2022-12-12T18:11:17.708Z,99.90
2022-12-12T18:13:48.342Z,99.90
2022-12-12T18:16:15.390Z,99.90
2022-12-12T18:18:42.647Z,99.90
2022-12-12T18:21:23.643Z,99.90
2022-12-12T18:24:00.263Z,99.90
2022-12-12T18:28:57.225Z,99.90
2022-12-12T18:31:25.050Z,99.90
2022-12-12T18:33:53.082Z,99.90
2022-12-12T18:36:27.476Z,99.90
2022-12-12T18:38:56.865Z,99.90
2022-12-12T18:41:24.413Z,99.90
2022-12-12T18:43:51.122Z,99.90
2022-12-12T18:46:19.749Z,99.90
2022-12-12T18:48:48.420Z,99.90
2022-12-12T18:51:22.464Z,99.90
2022-12-12T18:53:51.105Z,99.90
2022-12-12T18:56:21.614Z,99.90
2022-12-12T19:01:19.097Z,99.90
2022-12-12T19:03:48.973Z,99.90
2022-12-12T19:06:22.114Z,99.90
2022-12-12T19:08:49.800Z,99.90
2022-12-12T19:11:20.177Z,99.90
2022-12-12T19:16:18.184Z,99.90
2022-12-12T19:18:45.789Z,99.90
2022-12-12T19:21:18.976Z,99.90
2022-12-12T19:36:18.405Z,99.90
2022-12-12T19:38:47.578Z,99.90
2022-12-12T19:41:16.946Z,99.90
2022-12-12T19:43:45.222Z,99.90
2022-12-12T19:46:32.386Z,99.90
2022-12-12T19:49:03.108Z,99.90
2022-12-12T19:51:36.026Z,99.90
2022-12-12T19:54:06.879Z,99.90
2022-12-12T19:56:35.523Z,99.90
2022-12-12T19:59:02.491Z,99.90
2022-12-12T20:01:32.257Z,99.90
2022-12-12T20:04:06.655Z,99.90
2022-12-12T20:06:41.092Z,99.90
2022-12-12T20:09:09.555Z,99.90
2022-12-12T20:11:37.819Z,99.90
2022-12-12T20:14:05.159Z,99.90
2022-12-12T20:16:32.189Z,99.90
2022-12-12T20:18:59.642Z,99.90
2022-12-12T20:21:59.917Z,99.90
2022-12-12T20:24:17.842Z,99.90
2022-12-12T20:26:45.882Z,99.90
2022-12-12T20:29:13.924Z,99.90
2022-12-12T20:31:43.511Z,99.90
2022-12-12T20:34:11.385Z,99.90
2022-12-12T20:36:43.510Z,99.90
2022-12-12T20:39:16.281Z,99.90
2022-12-12T20:41:44.173Z,99.90
2022-12-12T20:44:12.379Z,99.90
2022-12-12T20:46:41.358Z,99.90
2022-12-12T20:49:10.888Z,99.90
2022-12-12T20:54:26.785Z,99.90
2022-12-12T20:56:54.529Z,99.90
2022-12-12T20:59:21.492Z,99.90
2022-12-12T21:04:16.025Z,99.90
2022-12-12T21:06:48.005Z,99.90
2022-12-12T21:09:22.840Z,99.90
2022-12-12T21:11:52.322Z,99.90
2022-12-12T21:16:46.400Z,99.90
2022-12-12T21:19:14.275Z,99.90
2022-12-12T21:21:42.863Z,99.90
2022-12-12T21:24:12.297Z,99.90
2022-12-12T21:26:39.543Z,99.90
2022-12-12T21:29:06.485Z,99.90
2022-12-12T21:31:36.842Z,99.90
2022-12-12T21:34:05.346Z,99.90
2022-12-12T21:36:32.937Z,99.90
2022-12-12T21:39:02.324Z,99.90
2022-12-12T21:41:29.195Z,99.90
2022-12-12T21:43:59.331Z,99.90
2022-12-12T21:46:27.599Z,99.90
2022-12-12T21:49:13.569Z,99.90
2022-12-12T21:51:41.696Z,99.90
2022-12-12T21:54:10.124Z,99.90
2022-12-12T22:01:34.366Z,99.90
2022-12-12T22:04:01.602Z,99.90
2022-12-12T22:06:31.220Z,99.90
2022-12-12T22:08:59.412Z,99.90
2022-12-12T22:11:41.317Z,99.90
2022-12-12T22:14:17.213Z,99.90
2022-12-12T22:19:13.705Z,99.90
2022-12-12T22:24:07.997Z,99.90
2022-12-12T22:26:37.322Z,99.90
2022-12-12T22:29:06.861Z,99.80
2022-12-12T22:31:35.889Z,99.90
2022-12-12T22:34:06.492Z,99.90
2022-12-12T22:36:35.661Z,99.90
2022-12-12T22:39:03.377Z,99.90
2022-12-12T22:41:30.586Z,99.90
2022-12-12T22:44:00.185Z,99.90
2022-12-12T22:46:27.929Z,99.90
2022-12-12T22:48:56.293Z,99.90
2022-12-12T22:51:28.781Z,99.90
2022-12-12T22:53:57.202Z,99.90
2022-12-12T22:58:51.220Z,99.90
2022-12-12T23:01:20.005Z,99.90
2022-12-12T23:03:47.441Z,99.90
2022-12-12T23:06:20.042Z,99.90
2022-12-12T23:08:52.577Z,99.90
2022-12-12T23:11:20.889Z,99.90
2022-12-12T23:13:48.254Z,99.90
2022-12-12T23:16:17.656Z,99.90
2022-12-12T23:18:45.428Z,99.90
2022-12-12T23:21:17.096Z,99.90
2022-12-12T23:26:17.803Z,99.90
2022-12-12T23:28:45.571Z,99.90
2022-12-12T23:31:15.147Z,99.90
2022-12-12T23:33:42.312Z,99.90
2022-12-12T23:36:10.428Z,99.90
2022-12-12T23:38:37.285Z,99.90
2022-12-12T23:41:08.980Z,99.90
2022-12-12T23:43:36.022Z,99.90
2022-12-12T23:46:08.385Z,99.90
2022-12-12T23:48:35.507Z,99.90
2022-12-12T23:51:02.448Z,99.90
2022-12-12T23:53:32.575Z,99.90
2022-12-12T23:56:04.283Z,99.90
